Fort Collins, CO (80524)

1:29 AM MDT op 17 september 2014 (GMT -0600)
Dellwood Heights | Change Station
CLOSE
Current Station
Persoonlijk weerstation
Location: Fort Collins, CO
Geometrische hoogte: 5079 ft
Nabije weerstations

Hoogte 5079 ft 40.62 °N, 105.06 °W | Updated 49 seconds ago

Helder
Helder
54.5 °F
Voelt als 54.5 °F
N
0.0
Wind Variabel Wind van WNW

Vandaag
Hoog -- | Laag -- °F
--% Kans op neerslag
Gisteren
Hoog -- | Laag -- °F
Precip. -- inches
6:42 AM 7:05 PM
Laatste kwartier, 38% visible
Druk 30.10 inches
Zicht 10.0 mijlen
Wolken Helder
Dauwpunt 44 °F
Vochtigheid 69%
Neerslag 0.00 inches
Dikte sneeuw Niet beschikbaar.
UV 0 van de 12
Pollen 7.30 van de 12
Ozon Goed
PM2.5 Goed
Flu Activity Niet beschikbaar.
METAR KFNL 170715Z AUTO 01005KT 10SM CLR 14/06 A3010 RMK AO1

More Conditions Fewer Conditions

Druk 30.10 inches
Zicht 10.0 mijlen
Wolken Helder
Dauwpunt 44 °F
Vochtigheid 69%
Neerslag 0.00 inches
Dikte sneeuw Niet beschikbaar.
UV 0 van de 12
Pollen 7.30 van de 12
Ozon Goed
PM2.5 Goed
Flu Activity Niet beschikbaar.
METAR KFNL 170715Z AUTO 01005KT 10SM CLR 14/06 A3010 RMK AO1

More Conditions Fewer Conditions

10-Day Weather Forecast

Almanac

Astronomie

Sep. 17, 2014 Opkomst Ondergang
Werkelijke tijd 6:42 AM MDT 7:05 PM MDT
Burgerlijke schemering 6:15 AM MDT 7:33 PM MDT
Nautische schemering 5:43 AM MDT 8:05 PM MDT
Astronomische schemering 5:10 AM MDT 8:38 PM MDT
Maan 12:43 AM MDT 3:18 PM MDT
Golflengte van het zichtbare licht 13h 17m
Daglengte
12h 22m
Tomorrow will be 2m 41s shorter.
Laatste kwartier, 38% of the Moon is Illuminated
Vandaag
Laatste kwartier
sep 24
Nieuw
oktober 1
Eerste kwartier
oktober 8
Volle maan
oktober 15
Laatste kwartier

Extremen vandaag

State Highs State Lows

Community

WunderPhotos

Upload Photos

1,753,976 foto’s ge-upload!

Nearby

Luchtkwaliteit

  Luchtkwaliteit LK-index Verontreinigende stof
Gisteren Goed
OZONE
Gisteren Goed
PM2.5
Actueel Goed
PM2.5
Actueel Goed
OZONE
dinsdag Goed
PM2.5
dinsdag Goed
OZONE
woensdag Goed
PM2.5
woensdag Goed
OZONE

Dikte sneeuw

Station Depth Geometrische hoogte
Cochetopa Pass 0 in 10020 ft
Joe Wright 0 in 10120 ft
Vail Mountain 87 in 10300 ft
Middle Fork Camp 1 in 9000 ft
Rawah 19 in 9020 ft

Aardbevingen

Stad Distance Mag. Time & Date
No recent earthquake activity has been reported nearby.
Minimum magnitude displayed is 2.5.

Watertemperatuur langs de kust

Plaats Temperatuur
Geen meldingen van stations

Nabije weerstations